sensor_id;sensor_type;location;lat;lon;timestamp;P1;durP1;ratioP1;P2;durP2;ratioP2
62584;SDS011;48643;51.670;5.808;2022-12-07T00:01:40;3.25;;;2.13;;
62584;SDS011;48643;51.670;5.808;2022-12-07T00:04:10;3.17;;;2.00;;
62584;SDS011;48643;51.670;5.808;2022-12-07T00:06:39;3.42;;;2.03;;
62584;SDS011;48643;51.670;5.808;2022-12-07T00:09:12;4.72;;;2.08;;
62584;SDS011;48643;51.670;5.808;2022-12-07T00:11:40;3.28;;;2.10;;
62584;SDS011;48643;51.670;5.808;2022-12-07T00:14:09;3.40;;;2.00;;
62584;SDS011;48643;51.670;5.808;2022-12-07T00:16:38;3.33;;;2.00;;
62584;SDS011;48643;51.670;5.808;2022-12-07T00:19:05;3.63;;;1.92;;
62584;SDS011;48643;51.670;5.808;2022-12-07T00:21:33;2.78;;;1.77;;
62584;SDS011;48643;51.670;5.808;2022-12-07T00:24:02;3.78;;;2.00;;
62584;SDS011;48643;51.670;5.808;2022-12-07T00:26:39;2.70;;;2.00;;
62584;SDS011;48643;51.670;5.808;2022-12-07T00:29:16;3.05;;;2.00;;
62584;SDS011;48643;51.670;5.808;2022-12-07T00:31:47;3.45;;;2.20;;
62584;SDS011;48643;51.670;5.808;2022-12-07T00:34:15;4.05;;;2.08;;
62584;SDS011;48643;51.670;5.808;2022-12-07T00:36:44;5.22;;;2.25;;
62584;SDS011;48643;51.670;5.808;2022-12-07T00:39:11;3.50;;;2.10;;
62584;SDS011;48643;51.670;5.808;2022-12-07T00:41:38;2.70;;;2.03;;
62584;SDS011;48643;51.670;5.808;2022-12-07T00:44:05;2.47;;;1.80;;
62584;SDS011;48643;51.670;5.808;2022-12-07T00:46:32;4.53;;;2.13;;
62584;SDS011;48643;51.670;5.808;2022-12-07T00:48:59;5.05;;;1.83;;
62584;SDS011;48643;51.670;5.808;2022-12-07T00:51:26;4.18;;;1.98;;
62584;SDS011;48643;51.670;5.808;2022-12-07T00:53:53;3.00;;;2.10;;
62584;SDS011;48643;51.670;5.808;2022-12-07T00:56:24;4.22;;;2.20;;
62584;SDS011;48643;51.670;5.808;2022-12-07T00:58:53;2.40;;;1.90;;
62584;SDS011;48643;51.670;5.808;2022-12-07T01:01:35;3.17;;;2.13;;
62584;SDS011;48643;51.670;5.808;2022-12-07T01:04:02;2.63;;;2.00;;
62584;SDS011;48643;51.670;5.808;2022-12-07T01:06:30;2.60;;;2.00;;
62584;SDS011;48643;51.670;5.808;2022-12-07T01:08:57;3.13;;;2.05;;
62584;SDS011;48643;51.670;5.808;2022-12-07T01:11:25;3.05;;;2.00;;
62584;SDS011;48643;51.670;5.808;2022-12-07T01:13:54;2.90;;;2.10;;
62584;SDS011;48643;51.670;5.808;2022-12-07T01:16:23;3.50;;;2.10;;
62584;SDS011;48643;51.670;5.808;2022-12-07T01:18:52;3.60;;;2.20;;
62584;SDS011;48643;51.670;5.808;2022-12-07T01:21:30;2.55;;;1.80;;
62584;SDS011;48643;51.670;5.808;2022-12-07T01:24:01;3.72;;;1.90;;
62584;SDS011;48643;51.670;5.808;2022-12-07T01:26:32;2.80;;;1.90;;
62584;SDS011;48643;51.670;5.808;2022-12-07T01:28:59;3.65;;;2.10;;
62584;SDS011;48643;51.670;5.808;2022-12-07T01:31:27;3.30;;;2.10;;
62584;SDS011;48643;51.670;5.808;2022-12-07T01:33:55;3.03;;;2.17;;
62584;SDS011;48643;51.670;5.808;2022-12-07T01:36:24;2.92;;;2.08;;
62584;SDS011;48643;51.670;5.808;2022-12-07T01:38:57;3.08;;;2.10;;
62584;SDS011;48643;51.670;5.808;2022-12-07T01:41:26;2.10;;;1.83;;
62584;SDS011;48643;51.670;5.808;2022-12-07T01:46:32;2.60;;;2.00;;
62584;SDS011;48643;51.670;5.808;2022-12-07T01:48:59;2.80;;;2.20;;
62584;SDS011;48643;51.670;5.808;2022-12-07T01:51:27;2.13;;;1.73;;
62584;SDS011;48643;51.670;5.808;2022-12-07T01:53:54;2.75;;;1.92;;
62584;SDS011;48643;51.670;5.808;2022-12-07T01:56:23;2.38;;;1.83;;
62584;SDS011;48643;51.670;5.808;2022-12-07T01:58:51;3.63;;;2.05;;
62584;SDS011;48643;51.670;5.808;2022-12-07T02:01:19;2.42;;;1.90;;
62584;SDS011;48643;51.670;5.808;2022-12-07T02:03:46;2.85;;;1.85;;
62584;SDS011;48643;51.670;5.808;2022-12-07T02:06:15;3.00;;;2.10;;
62584;SDS011;48643;51.670;5.808;2022-12-07T02:08:45;2.58;;;1.90;;
62584;SDS011;48643;51.670;5.808;2022-12-07T02:11:13;2.90;;;2.00;;
62584;SDS011;48643;51.670;5.808;2022-12-07T02:13:40;3.17;;;2.08;;
62584;SDS011;48643;51.670;5.808;2022-12-07T02:18:58;2.67;;;1.90;;
62584;SDS011;48643;51.670;5.808;2022-12-07T02:29:57;2.92;;;1.90;;
62584;SDS011;48643;51.670;5.808;2022-12-07T02:32:46;3.08;;;2.00;;
62584;SDS011;48643;51.670;5.808;2022-12-07T02:35:39;2.20;;;1.80;;
62584;SDS011;48643;51.670;5.808;2022-12-07T02:38:13;3.05;;;2.00;;
62584;SDS011;48643;51.670;5.808;2022-12-07T02:40:43;3.03;;;1.80;;
62584;SDS011;48643;51.670;5.808;2022-12-07T02:43:19;2.95;;;2.10;;
62584;SDS011;48643;51.670;5.808;2022-12-07T02:46:08;2.97;;;1.80;;
62584;SDS011;48643;51.670;5.808;2022-12-07T02:48:37;2.80;;;2.00;;
62584;SDS011;48643;51.670;5.808;2022-12-07T02:51:05;2.42;;;1.92;;
62584;SDS011;48643;51.670;5.808;2022-12-07T02:53:33;3.03;;;1.95;;
62584;SDS011;48643;51.670;5.808;2022-12-07T02:56:03;3.72;;;2.22;;
62584;SDS011;48643;51.670;5.808;2022-12-07T02:58:51;2.95;;;1.80;;
62584;SDS011;48643;51.670;5.808;2022-12-07T03:04:11;3.22;;;2.00;;
62584;SDS011;48643;51.670;5.808;2022-12-07T03:07:06;3.50;;;1.90;;
62584;SDS011;48643;51.670;5.808;2022-12-07T03:10:24;2.72;;;1.90;;
62584;SDS011;48643;51.670;5.808;2022-12-07T03:12:33;4.03;;;1.92;;
62584;SDS011;48643;51.670;5.808;2022-12-07T03:15:21;2.90;;;1.80;;
62584;SDS011;48643;51.670;5.808;2022-12-07T03:17:55;2.80;;;1.90;;
62584;SDS011;48643;51.670;5.808;2022-12-07T03:20:23;3.90;;;2.00;;
62584;SDS011;48643;51.670;5.808;2022-12-07T03:22:52;2.88;;;1.88;;
62584;SDS011;48643;51.670;5.808;2022-12-07T03:25:21;4.38;;;1.90;;
62584;SDS011;48643;51.670;5.808;2022-12-07T03:27:56;3.17;;;1.83;;
62584;SDS011;48643;51.670;5.808;2022-12-07T03:30:39;2.72;;;2.10;;
62584;SDS011;48643;51.670;5.808;2022-12-07T03:33:16;2.15;;;1.80;;
62584;SDS011;48643;51.670;5.808;2022-12-07T03:36:06;2.95;;;1.80;;
62584;SDS011;48643;51.670;5.808;2022-12-07T03:38:45;2.97;;;2.00;;
62584;SDS011;48643;51.670;5.808;2022-12-07T03:41:19;4.15;;;2.05;;
62584;SDS011;48643;51.670;5.808;2022-12-07T03:43:53;2.38;;;1.70;;
62584;SDS011;48643;51.670;5.808;2022-12-07T03:46:27;4.63;;;2.17;;
62584;SDS011;48643;51.670;5.808;2022-12-07T03:54:34;2.50;;;1.83;;
62584;SDS011;48643;51.670;5.808;2022-12-07T03:57:04;2.97;;;1.88;;
62584;SDS011;48643;51.670;5.808;2022-12-07T03:59:32;3.78;;;2.00;;
62584;SDS011;48643;51.670;5.808;2022-12-07T04:02:03;3.28;;;2.00;;
62584;SDS011;48643;51.670;5.808;2022-12-07T04:04:31;2.60;;;1.80;;
62584;SDS011;48643;51.670;5.808;2022-12-07T04:06:58;2.53;;;1.73;;
62584;SDS011;48643;51.670;5.808;2022-12-07T04:09:25;2.20;;;1.80;;
62584;SDS011;48643;51.670;5.808;2022-12-07T04:11:52;2.38;;;1.85;;
62584;SDS011;48643;51.670;5.808;2022-12-07T04:14:19;2.22;;;1.75;;
62584;SDS011;48643;51.670;5.808;2022-12-07T04:19:14;3.22;;;1.90;;
62584;SDS011;48643;51.670;5.808;2022-12-07T04:21:42;3.08;;;1.90;;
62584;SDS011;48643;51.670;5.808;2022-12-07T04:24:09;2.50;;;1.75;;
62584;SDS011;48643;51.670;5.808;2022-12-07T04:26:36;2.65;;;1.70;;
62584;SDS011;48643;51.670;5.808;2022-12-07T04:29:02;3.67;;;1.90;;
62584;SDS011;48643;51.670;5.808;2022-12-07T04:31:33;2.78;;;1.80;;
62584;SDS011;48643;51.670;5.808;2022-12-07T04:34:01;2.15;;;1.73;;
62584;SDS011;48643;51.670;5.808;2022-12-07T04:36:28;2.90;;;2.00;;
62584;SDS011;48643;51.670;5.808;2022-12-07T04:38:55;3.00;;;1.60;;
62584;SDS011;48643;51.670;5.808;2022-12-07T04:41:22;2.65;;;1.70;;
62584;SDS011;48643;51.670;5.808;2022-12-07T04:43:54;2.40;;;1.73;;
62584;SDS011;48643;51.670;5.808;2022-12-07T04:46:22;2.30;;;1.87;;
62584;SDS011;48643;51.670;5.808;2022-12-07T04:48:50;1.83;;;1.60;;
62584;SDS011;48643;51.670;5.808;2022-12-07T04:51:35;2.28;;;1.67;;
62584;SDS011;48643;51.670;5.808;2022-12-07T04:54:03;2.95;;;1.80;;
62584;SDS011;48643;51.670;5.808;2022-12-07T04:56:30;2.35;;;1.70;;
62584;SDS011;48643;51.670;5.808;2022-12-07T04:58:57;3.05;;;1.80;;
62584;SDS011;48643;51.670;5.808;2022-12-07T05:01:24;3.28;;;1.70;;
62584;SDS011;48643;51.670;5.808;2022-12-07T05:03:51;3.33;;;1.70;;
62584;SDS011;48643;51.670;5.808;2022-12-07T05:06:18;3.60;;;1.70;;
62584;SDS011;48643;51.670;5.808;2022-12-07T05:08:45;2.38;;;1.60;;
62584;SDS011;48643;51.670;5.808;2022-12-07T05:11:13;3.42;;;1.80;;
62584;SDS011;48643;51.670;5.808;2022-12-07T05:14:00;4.25;;;1.80;;
62584;SDS011;48643;51.670;5.808;2022-12-07T05:16:28;3.00;;;1.80;;
62584;SDS011;48643;51.670;5.808;2022-12-07T05:18:55;2.20;;;1.60;;
62584;SDS011;48643;51.670;5.808;2022-12-07T05:21:22;2.13;;;1.75;;
62584;SDS011;48643;51.670;5.808;2022-12-07T05:23:49;2.83;;;1.60;;
62584;SDS011;48643;51.670;5.808;2022-12-07T05:26:16;2.45;;;1.55;;
62584;SDS011;48643;51.670;5.808;2022-12-07T05:28:43;2.28;;;1.50;;
62584;SDS011;48643;51.670;5.808;2022-12-07T05:31:10;2.97;;;1.80;;
62584;SDS011;48643;51.670;5.808;2022-12-07T05:33:37;2.67;;;1.45;;
62584;SDS011;48643;51.670;5.808;2022-12-07T05:36:04;2.97;;;1.80;;
62584;SDS011;48643;51.670;5.808;2022-12-07T05:38:33;2.55;;;1.58;;
62584;SDS011;48643;51.670;5.808;2022-12-07T05:41:01;3.10;;;1.80;;
62584;SDS011;48643;51.670;5.808;2022-12-07T05:43:29;3.50;;;1.73;;
62584;SDS011;48643;51.670;5.808;2022-12-07T05:45:56;2.80;;;1.70;;
62584;SDS011;48643;51.670;5.808;2022-12-07T05:48:23;2.75;;;1.60;;
62584;SDS011;48643;51.670;5.808;2022-12-07T05:50:51;2.40;;;1.58;;
62584;SDS011;48643;51.670;5.808;2022-12-07T05:53:18;2.42;;;1.48;;
62584;SDS011;48643;51.670;5.808;2022-12-07T05:55:48;3.05;;;1.60;;
62584;SDS011;48643;51.670;5.808;2022-12-07T05:58:15;2.58;;;1.60;;
62584;SDS011;48643;51.670;5.808;2022-12-07T06:01:01;2.95;;;1.50;;
62584;SDS011;48643;51.670;5.808;2022-12-07T06:03:27;3.47;;;1.70;;
62584;SDS011;48643;51.670;5.808;2022-12-07T06:05:55;2.33;;;1.60;;
62584;SDS011;48643;51.670;5.808;2022-12-07T06:08:21;2.70;;;1.63;;
62584;SDS011;48643;51.670;5.808;2022-12-07T06:10:48;2.25;;;1.70;;
62584;SDS011;48643;51.670;5.808;2022-12-07T06:13:38;1.98;;;1.45;;
62584;SDS011;48643;51.670;5.808;2022-12-07T06:16:12;2.10;;;1.42;;
62584;SDS011;48643;51.670;5.808;2022-12-07T06:18:39;3.35;;;1.70;;
62584;SDS011;48643;51.670;5.808;2022-12-07T06:21:06;1.98;;;1.45;;
62584;SDS011;48643;51.670;5.808;2022-12-07T06:23:33;2.25;;;1.60;;
62584;SDS011;48643;51.670;5.808;2022-12-07T06:26:00;2.15;;;1.60;;
62584;SDS011;48643;51.670;5.808;2022-12-07T06:28:26;3.53;;;1.50;;
62584;SDS011;48643;51.670;5.808;2022-12-07T06:30:57;3.03;;;1.77;;
62584;SDS011;48643;51.670;5.808;2022-12-07T06:33:25;3.28;;;1.60;;
62584;SDS011;48643;51.670;5.808;2022-12-07T06:35:53;2.70;;;1.60;;
62584;SDS011;48643;51.670;5.808;2022-12-07T06:38:20;1.65;;;1.40;;
62584;SDS011;48643;51.670;5.808;2022-12-07T06:40:47;3.13;;;1.77;;
62584;SDS011;48643;51.670;5.808;2022-12-07T06:43:14;3.05;;;1.60;;
62584;SDS011;48643;51.670;5.808;2022-12-07T06:45:41;1.50;;;1.30;;
62584;SDS011;48643;51.670;5.808;2022-12-07T06:48:08;1.98;;;1.30;;
62584;SDS011;48643;51.670;5.808;2022-12-07T06:50:35;1.70;;;1.30;;
62584;SDS011;48643;51.670;5.808;2022-12-07T06:53:02;2.55;;;1.70;;
62584;SDS011;48643;51.670;5.808;2022-12-07T06:55:29;2.83;;;1.48;;
62584;SDS011;48643;51.670;5.808;2022-12-07T06:57:56;2.63;;;1.48;;
62584;SDS011;48643;51.670;5.808;2022-12-07T07:00:22;2.47;;;1.70;;
62584;SDS011;48643;51.670;5.808;2022-12-07T07:02:49;2.92;;;1.40;;
62584;SDS011;48643;51.670;5.808;2022-12-07T07:05:16;2.78;;;1.50;;
62584;SDS011;48643;51.670;5.808;2022-12-07T07:07:43;2.03;;;1.42;;
62584;SDS011;48643;51.670;5.808;2022-12-07T07:10:30;2.17;;;1.55;;
62584;SDS011;48643;51.670;5.808;2022-12-07T07:12:57;2.55;;;1.40;;
62584;SDS011;48643;51.670;5.808;2022-12-07T07:15:24;2.30;;;1.42;;
62584;SDS011;48643;51.670;5.808;2022-12-07T07:17:51;2.13;;;1.48;;
62584;SDS011;48643;51.670;5.808;2022-12-07T07:20:18;1.73;;;1.42;;
62584;SDS011;48643;51.670;5.808;2022-12-07T07:22:45;2.35;;;1.40;;
62584;SDS011;48643;51.670;5.808;2022-12-07T07:25:12;2.03;;;1.33;;
62584;SDS011;48643;51.670;5.808;2022-12-07T07:27:38;1.65;;;1.40;;
62584;SDS011;48643;51.670;5.808;2022-12-07T07:30:06;1.73;;;1.10;;
62584;SDS011;48643;51.670;5.808;2022-12-07T07:32:33;3.42;;;1.73;;
62584;SDS011;48643;51.670;5.808;2022-12-07T07:35:00;1.88;;;1.40;;
62584;SDS011;48643;51.670;5.808;2022-12-07T07:37:27;5.55;;;2.38;;
62584;SDS011;48643;51.670;5.808;2022-12-07T07:39:54;5.82;;;2.20;;
62584;SDS011;48643;51.670;5.808;2022-12-07T07:42:21;3.95;;;2.50;;
62584;SDS011;48643;51.670;5.808;2022-12-07T07:44:48;5.13;;;2.70;;
62584;SDS011;48643;51.670;5.808;2022-12-07T07:47:15;8.40;;;2.70;;
62584;SDS011;48643;51.670;5.808;2022-12-07T07:49:42;5.20;;;2.63;;
62584;SDS011;48643;51.670;5.808;2022-12-07T07:52:13;7.35;;;2.92;;
62584;SDS011;48643;51.670;5.808;2022-12-07T07:54:40;5.63;;;2.58;;
62584;SDS011;48643;51.670;5.808;2022-12-07T07:57:07;11.85;;;2.45;;
62584;SDS011;48643;51.670;5.808;2022-12-07T07:59:34;8.48;;;2.58;;
62584;SDS011;48643;51.670;5.808;2022-12-07T08:02:01;10.05;;;2.40;;
62584;SDS011;48643;51.670;5.808;2022-12-07T08:04:28;7.15;;;2.40;;
62584;SDS011;48643;51.670;5.808;2022-12-07T08:06:55;6.40;;;2.35;;
62584;SDS011;48643;51.670;5.808;2022-12-07T08:09:23;4.68;;;2.40;;
62584;SDS011;48643;51.670;5.808;2022-12-07T08:11:49;5.18;;;2.05;;
62584;SDS011;48643;51.670;5.808;2022-12-07T08:14:16;5.28;;;2.20;;
62584;SDS011;48643;51.670;5.808;2022-12-07T08:16:43;6.85;;;2.40;;
62584;SDS011;48643;51.670;5.808;2022-12-07T08:19:10;3.63;;;2.10;;
62584;SDS011;48643;51.670;5.808;2022-12-07T08:21:37;3.85;;;1.95;;
62584;SDS011;48643;51.670;5.808;2022-12-07T08:24:04;4.85;;;2.25;;
62584;SDS011;48643;51.670;5.808;2022-12-07T08:26:31;4.40;;;2.20;;
62584;SDS011;48643;51.670;5.808;2022-12-07T08:28:58;3.60;;;1.90;;
62584;SDS011;48643;51.670;5.808;2022-12-07T08:31:25;3.67;;;1.77;;
62584;SDS011;48643;51.670;5.808;2022-12-07T08:33:54;5.78;;;1.98;;
62584;SDS011;48643;51.670;5.808;2022-12-07T08:36:21;3.53;;;2.05;;
62584;SDS011;48643;51.670;5.808;2022-12-07T08:38:49;6.18;;;2.10;;
62584;SDS011;48643;51.670;5.808;2022-12-07T08:41:36;5.35;;;2.10;;
62584;SDS011;48643;51.670;5.808;2022-12-07T08:44:03;6.53;;;1.90;;
62584;SDS011;48643;51.670;5.808;2022-12-07T08:49:11;3.08;;;1.88;;
62584;SDS011;48643;51.670;5.808;2022-12-07T08:51:43;2.47;;;1.60;;
62584;SDS011;48643;51.670;5.808;2022-12-07T08:54:10;4.30;;;2.00;;
62584;SDS011;48643;51.670;5.808;2022-12-07T08:56:39;2.88;;;1.70;;
62584;SDS011;48643;51.670;5.808;2022-12-07T08:59:07;3.72;;;1.85;;
62584;SDS011;48643;51.670;5.808;2022-12-07T09:01:34;3.15;;;1.60;;
62584;SDS011;48643;51.670;5.808;2022-12-07T09:04:01;2.55;;;1.50;;
62584;SDS011;48643;51.670;5.808;2022-12-07T09:06:28;2.10;;;1.40;;
62584;SDS011;48643;51.670;5.808;2022-12-07T09:08:56;5.03;;;1.42;;
62584;SDS011;48643;51.670;5.808;2022-12-07T09:11:24;3.20;;;1.67;;
62584;SDS011;48643;51.670;5.808;2022-12-07T09:13:54;9.88;;;1.98;;
62584;SDS011;48643;51.670;5.808;2022-12-07T09:16:21;3.45;;;1.70;;
62584;SDS011;48643;51.670;5.808;2022-12-07T09:18:48;3.22;;;1.50;;
62584;SDS011;48643;51.670;5.808;2022-12-07T09:21:15;3.08;;;1.50;;
62584;SDS011;48643;51.670;5.808;2022-12-07T09:23:42;3.15;;;1.60;;
62584;SDS011;48643;51.670;5.808;2022-12-07T09:26:09;2.42;;;1.50;;
62584;SDS011;48643;51.670;5.808;2022-12-07T09:28:36;2.50;;;1.40;;
62584;SDS011;48643;51.670;5.808;2022-12-07T09:31:04;2.55;;;1.33;;
62584;SDS011;48643;51.670;5.808;2022-12-07T09:33:55;2.95;;;1.50;;
62584;SDS011;48643;51.670;5.808;2022-12-07T09:36:26;3.65;;;1.80;;
62584;SDS011;48643;51.670;5.808;2022-12-07T09:38:53;3.15;;;1.38;;
62584;SDS011;48643;51.670;5.808;2022-12-07T09:41:21;2.20;;;1.30;;
62584;SDS011;48643;51.670;5.808;2022-12-07T09:43:49;3.50;;;1.35;;
62584;SDS011;48643;51.670;5.808;2022-12-07T09:46:16;2.83;;;1.50;;
62584;SDS011;48643;51.670;5.808;2022-12-07T09:48:45;4.40;;;1.52;;
62584;SDS011;48643;51.670;5.808;2022-12-07T09:51:22;2.15;;;1.40;;
62584;SDS011;48643;51.670;5.808;2022-12-07T09:53:52;3.45;;;1.60;;
62584;SDS011;48643;51.670;5.808;2022-12-07T09:56:20;2.67;;;1.38;;
62584;SDS011;48643;51.670;5.808;2022-12-07T09:58:47;2.33;;;1.33;;
62584;SDS011;48643;51.670;5.808;2022-12-07T10:01:16;2.33;;;1.40;;
62584;SDS011;48643;51.670;5.808;2022-12-07T10:03:49;3.92;;;1.70;;
62584;SDS011;48643;51.670;5.808;2022-12-07T10:06:17;9.25;;;1.15;;
62584;SDS011;48643;51.670;5.808;2022-12-07T10:08:44;5.20;;;1.73;;
62584;SDS011;48643;51.670;5.808;2022-12-07T10:11:11;4.43;;;1.52;;
62584;SDS011;48643;51.670;5.808;2022-12-07T10:13:45;3.70;;;1.50;;
62584;SDS011;48643;51.670;5.808;2022-12-07T10:18:51;7.65;;;1.20;;
62584;SDS011;48643;51.670;5.808;2022-12-07T10:26:52;2.47;;;1.35;;
62584;SDS011;48643;51.670;5.808;2022-12-07T10:29:38;2.55;;;1.30;;
62584;SDS011;48643;51.670;5.808;2022-12-07T10:34:47;2.25;;;1.27;;
62584;SDS011;48643;51.670;5.808;2022-12-07T10:37:19;2.67;;;1.27;;
62584;SDS011;48643;51.670;5.808;2022-12-07T10:39:48;2.60;;;1.27;;
62584;SDS011;48643;51.670;5.808;2022-12-07T10:42:19;2.85;;;1.33;;
62584;SDS011;48643;51.670;5.808;2022-12-07T10:45:12;2.28;;;1.30;;
62584;SDS011;48643;51.670;5.808;2022-12-07T10:50:17;2.20;;;1.25;;
62584;SDS011;48643;51.670;5.808;2022-12-07T10:58:11;1.58;;;1.30;;
62584;SDS011;48643;51.670;5.808;2022-12-07T11:00:55;2.35;;;1.23;;
62584;SDS011;48643;51.670;5.808;2022-12-07T11:12:12;5.47;;;1.45;;
62584;SDS011;48643;51.670;5.808;2022-12-07T11:15:01;2.28;;;1.27;;
62584;SDS011;48643;51.670;5.808;2022-12-07T11:18:21;2.53;;;1.30;;
62584;SDS011;48643;51.670;5.808;2022-12-07T11:20:39;3.85;;;1.50;;
62584;SDS011;48643;51.670;5.808;2022-12-07T11:26:00;4.25;;;1.40;;
62584;SDS011;48643;51.670;5.808;2022-12-07T11:31:32;3.85;;;1.60;;
62584;SDS011;48643;51.670;5.808;2022-12-07T11:36:51;5.53;;;1.75;;
62584;SDS011;48643;51.670;5.808;2022-12-07T11:41:48;3.35;;;1.95;;
62584;SDS011;48643;51.670;5.808;2022-12-07T11:52:12;5.13;;;2.78;;
62584;SDS011;48643;51.670;5.808;2022-12-07T11:54:49;7.07;;;2.40;;
62584;SDS011;48643;51.670;5.808;2022-12-07T11:57:34;7.10;;;2.55;;
62584;SDS011;48643;51.670;5.808;2022-12-07T12:00:05;5.78;;;2.35;;
62584;SDS011;48643;51.670;5.808;2022-12-07T12:02:53;5.78;;;2.40;;
62584;SDS011;48643;51.670;5.808;2022-12-07T12:05:25;6.38;;;2.60;;
62584;SDS011;48643;51.670;5.808;2022-12-07T12:07:59;4.47;;;2.20;;
62584;SDS011;48643;51.670;5.808;2022-12-07T12:11:00;5.78;;;2.28;;
62584;SDS011;48643;51.670;5.808;2022-12-07T12:19:46;5.72;;;2.20;;
62584;SDS011;48643;51.670;5.808;2022-12-07T12:22:46;5.97;;;2.53;;
62584;SDS011;48643;51.670;5.808;2022-12-07T12:25:45;6.30;;;2.20;;
62584;SDS011;48643;51.670;5.808;2022-12-07T12:31:13;6.32;;;2.22;;
62584;SDS011;48643;51.670;5.808;2022-12-07T12:33:44;7.57;;;2.22;;
62584;SDS011;48643;51.670;5.808;2022-12-07T12:36:28;4.88;;;2.08;;
62584;SDS011;48643;51.670;5.808;2022-12-07T12:39:14;6.22;;;2.25;;
62584;SDS011;48643;51.670;5.808;2022-12-07T12:41:50;4.80;;;2.28;;
62584;SDS011;48643;51.670;5.808;2022-12-07T12:46:46;15.02;;;8.40;;
62584;SDS011;48643;51.670;5.808;2022-12-07T12:51:50;14.77;;;6.43;;
62584;SDS011;48643;51.670;5.808;2022-12-07T12:54:22;14.40;;;6.03;;
62584;SDS011;48643;51.670;5.808;2022-12-07T12:56:59;11.02;;;6.22;;
62584;SDS011;48643;51.670;5.808;2022-12-07T12:59:36;14.38;;;6.28;;
62584;SDS011;48643;51.670;5.808;2022-12-07T13:02:24;14.85;;;5.85;;
62584;SDS011;48643;51.670;5.808;2022-12-07T13:04:57;20.98;;;6.18;;
62584;SDS011;48643;51.670;5.808;2022-12-07T13:15:39;10.52;;;5.50;;
62584;SDS011;48643;51.670;5.808;2022-12-07T13:18:40;12.40;;;5.20;;
62584;SDS011;48643;51.670;5.808;2022-12-07T13:23:37;11.82;;;5.70;;
62584;SDS011;48643;51.670;5.808;2022-12-07T13:28:46;11.65;;;5.20;;
62584;SDS011;48643;51.670;5.808;2022-12-07T13:34:04;16.35;;;5.68;;
62584;SDS011;48643;51.670;5.808;2022-12-07T13:36:51;13.73;;;5.45;;
62584;SDS011;48643;51.670;5.808;2022-12-07T13:41:51;20.65;;;5.18;;
62584;SDS011;48643;51.670;5.808;2022-12-07T13:44:19;12.50;;;5.30;;
62584;SDS011;48643;51.670;5.808;2022-12-07T13:49:26;13.57;;;5.05;;
62584;SDS011;48643;51.670;5.808;2022-12-07T13:51:55;16.83;;;4.97;;
62584;SDS011;48643;51.670;5.808;2022-12-07T13:55:27;16.13;;;4.57;;
62584;SDS011;48643;51.670;5.808;2022-12-07T13:57:47;13.77;;;3.72;;
62584;SDS011;48643;51.670;5.808;2022-12-07T14:02:58;12.02;;;3.90;;
62584;SDS011;48643;51.670;5.808;2022-12-07T14:05:38;14.05;;;3.97;;
62584;SDS011;48643;51.670;5.808;2022-12-07T14:11:00;8.90;;;3.40;;
62584;SDS011;48643;51.670;5.808;2022-12-07T14:16:00;6.95;;;2.97;;
62584;SDS011;48643;51.670;5.808;2022-12-07T14:18:39;8.85;;;3.00;;
62584;SDS011;48643;51.670;5.808;2022-12-07T14:21:14;5.80;;;2.80;;
62584;SDS011;48643;51.670;5.808;2022-12-07T14:23:44;9.48;;;2.75;;
62584;SDS011;48643;51.670;5.808;2022-12-07T14:26:14;8.18;;;2.70;;
62584;SDS011;48643;51.670;5.808;2022-12-07T14:28:45;9.43;;;2.53;;
62584;SDS011;48643;51.670;5.808;2022-12-07T14:31:14;8.98;;;2.83;;
62584;SDS011;48643;51.670;5.808;2022-12-07T14:33:58;6.10;;;2.65;;
62584;SDS011;48643;51.670;5.808;2022-12-07T14:36:25;5.28;;;2.50;;
62584;SDS011;48643;51.670;5.808;2022-12-07T14:38:52;5.43;;;2.67;;
62584;SDS011;48643;51.670;5.808;2022-12-07T14:41:22;5.38;;;2.20;;
62584;SDS011;48643;51.670;5.808;2022-12-07T14:44:10;6.22;;;2.10;;
62584;SDS011;48643;51.670;5.808;2022-12-07T14:46:58;6.75;;;2.45;;
62584;SDS011;48643;51.670;5.808;2022-12-07T14:49:45;6.10;;;2.30;;
62584;SDS011;48643;51.670;5.808;2022-12-07T14:52:16;6.00;;;2.45;;
62584;SDS011;48643;51.670;5.808;2022-12-07T14:55:24;4.97;;;2.05;;
62584;SDS011;48643;51.670;5.808;2022-12-07T14:57:51;4.47;;;2.17;;
62584;SDS011;48643;51.670;5.808;2022-12-07T15:00:19;5.05;;;2.13;;
62584;SDS011;48643;51.670;5.808;2022-12-07T15:02:47;4.32;;;2.17;;
62584;SDS011;48643;51.670;5.808;2022-12-07T15:05:14;6.88;;;2.00;;
62584;SDS011;48643;51.670;5.808;2022-12-07T15:07:43;5.13;;;2.13;;
62584;SDS011;48643;51.670;5.808;2022-12-07T15:10:21;4.43;;;1.95;;
62584;SDS011;48643;51.670;5.808;2022-12-07T15:12:50;4.53;;;2.13;;
62584;SDS011;48643;51.670;5.808;2022-12-07T15:15:17;3.70;;;1.83;;
62584;SDS011;48643;51.670;5.808;2022-12-07T15:17:44;4.40;;;1.88;;
62584;SDS011;48643;51.670;5.808;2022-12-07T15:20:12;4.13;;;2.10;;
62584;SDS011;48643;51.670;5.808;2022-12-07T15:22:42;3.22;;;1.60;;
62584;SDS011;48643;51.670;5.808;2022-12-07T15:25:12;4.35;;;1.83;;
62584;SDS011;48643;51.670;5.808;2022-12-07T15:27:39;2.65;;;1.73;;
62584;SDS011;48643;51.670;5.808;2022-12-07T15:30:06;2.33;;;1.60;;
62584;SDS011;48643;51.670;5.808;2022-12-07T15:32:33;5.93;;;1.88;;
62584;SDS011;48643;51.670;5.808;2022-12-07T15:35:00;9.48;;;1.70;;
62584;SDS011;48643;51.670;5.808;2022-12-07T15:37:27;9.45;;;1.85;;
62584;SDS011;48643;51.670;5.808;2022-12-07T15:39:54;3.70;;;1.42;;
62584;SDS011;48643;51.670;5.808;2022-12-07T15:42:21;6.38;;;1.75;;
62584;SDS011;48643;51.670;5.808;2022-12-07T15:44:48;4.80;;;1.65;;
62584;SDS011;48643;51.670;5.808;2022-12-07T15:47:32;3.45;;;1.65;;
62584;SDS011;48643;51.670;5.808;2022-12-07T15:50:22;4.15;;;1.70;;
62584;SDS011;48643;51.670;5.808;2022-12-07T15:52:49;6.47;;;1.73;;
62584;SDS011;48643;51.670;5.808;2022-12-07T15:55:16;9.48;;;1.70;;
62584;SDS011;48643;51.670;5.808;2022-12-07T15:57:42;6.50;;;1.77;;
62584;SDS011;48643;51.670;5.808;2022-12-07T16:00:10;4.35;;;1.80;;
62584;SDS011;48643;51.670;5.808;2022-12-07T16:02:37;2.90;;;1.45;;
62584;SDS011;48643;51.670;5.808;2022-12-07T16:05:05;3.38;;;1.60;;
62584;SDS011;48643;51.670;5.808;2022-12-07T16:07:32;4.97;;;1.65;;
62584;SDS011;48643;51.670;5.808;2022-12-07T16:09:59;3.97;;;1.90;;
62584;SDS011;48643;51.670;5.808;2022-12-07T16:12:26;6.78;;;2.13;;
62584;SDS011;48643;51.670;5.808;2022-12-07T16:14:53;4.72;;;1.77;;
62584;SDS011;48643;51.670;5.808;2022-12-07T16:17:20;3.28;;;1.67;;
62584;SDS011;48643;51.670;5.808;2022-12-07T16:19:47;4.60;;;1.85;;
62584;SDS011;48643;51.670;5.808;2022-12-07T16:22:13;3.28;;;1.90;;
62584;SDS011;48643;51.670;5.808;2022-12-07T16:24:40;2.97;;;1.70;;
62584;SDS011;48643;51.670;5.808;2022-12-07T16:27:07;3.83;;;1.80;;
62584;SDS011;48643;51.670;5.808;2022-12-07T16:29:34;5.65;;;1.85;;
62584;SDS011;48643;51.670;5.808;2022-12-07T16:32:01;6.88;;;1.77;;
62584;SDS011;48643;51.670;5.808;2022-12-07T16:34:28;4.85;;;1.80;;
62584;SDS011;48643;51.670;5.808;2022-12-07T16:36:55;6.15;;;2.05;;
62584;SDS011;48643;51.670;5.808;2022-12-07T16:39:31;8.27;;;2.08;;
62584;SDS011;48643;51.670;5.808;2022-12-07T16:41:58;6.72;;;1.80;;
62584;SDS011;48643;51.670;5.808;2022-12-07T16:44:26;6.90;;;2.00;;
62584;SDS011;48643;51.670;5.808;2022-12-07T16:46:53;8.68;;;1.90;;
62584;SDS011;48643;51.670;5.808;2022-12-07T16:49:20;6.03;;;1.55;;
62584;SDS011;48643;51.670;5.808;2022-12-07T16:51:49;3.83;;;1.83;;
62584;SDS011;48643;51.670;5.808;2022-12-07T16:54:36;5.95;;;1.80;;
62584;SDS011;48643;51.670;5.808;2022-12-07T16:57:03;5.45;;;1.80;;
62584;SDS011;48643;51.670;5.808;2022-12-07T16:59:30;6.25;;;1.90;;
62584;SDS011;48643;51.670;5.808;2022-12-07T17:01:57;3.60;;;1.70;;
62584;SDS011;48643;51.670;5.808;2022-12-07T17:04:24;4.25;;;1.70;;
62584;SDS011;48643;51.670;5.808;2022-12-07T17:06:52;6.30;;;1.63;;
62584;SDS011;48643;51.670;5.808;2022-12-07T17:09:19;2.33;;;1.50;;